createdAt,value
2024-05-09T00:00:46.421Z,99487.56
2024-05-09T00:03:34.034Z,99487.78
2024-05-09T00:06:01.615Z,99485.25
2024-05-09T00:08:29.352Z,99493.28
2024-05-09T00:10:56.662Z,99488.13
2024-05-09T00:13:24.200Z,99482.09
2024-05-09T00:15:51.378Z,99484.81
2024-05-09T00:18:19.094Z,99493.72
2024-05-09T00:20:46.345Z,99488.47
2024-05-09T00:23:14.229Z,99489.47
2024-05-09T00:25:45.453Z,99489.75
2024-05-09T00:28:14.221Z,99491.56
2024-05-09T00:30:41.788Z,99491.69
2024-05-09T00:33:10.860Z,99489.09
2024-05-09T00:35:39.816Z,99500.75
2024-05-09T00:38:07.628Z,99496.47
2024-05-09T00:40:41.021Z,99503.72
2024-05-09T00:43:12.397Z,99497.75
2024-05-09T00:45:40.649Z,99496.16
2024-05-09T00:48:11.084Z,99499.75
2024-05-09T00:50:42.508Z,99504.38
2024-05-09T00:53:16.654Z,99505.31
2024-05-09T00:55:45.066Z,99496.50
2024-05-09T00:58:18.373Z,99500.91
2024-05-09T01:00:45.625Z,99499.28
2024-05-09T01:03:14.352Z,99501.28
2024-05-09T01:05:45.196Z,99502.13
2024-05-09T01:08:13.420Z,99498.75
2024-05-09T01:10:43.720Z,99504.09
2024-05-09T01:13:12.874Z,99500.66
2024-05-09T01:15:40.376Z,99494.59
2024-05-09T01:18:12.096Z,99493.84
2024-05-09T01:20:43.417Z,99502.84
2024-05-09T01:23:15.370Z,99503.91
2024-05-09T01:25:44.819Z,99498.75
2024-05-09T01:28:12.823Z,99512.97
2024-05-09T01:30:39.969Z,99504.22
2024-05-09T01:33:09.765Z,99507.00
2024-05-09T01:35:41.320Z,99506.22
2024-05-09T01:38:12.802Z,99500.19
2024-05-09T01:40:40.605Z,99505.53
2024-05-09T01:43:09.635Z,99506.44
2024-05-09T01:45:38.641Z,99500.25
2024-05-09T01:48:07.165Z,99516.19
2024-05-09T01:50:39.594Z,99516.19
2024-05-09T01:53:15.151Z,99508.31
2024-05-09T01:55:43.373Z,99510.91
2024-05-09T01:58:11.294Z,99513.63
2024-05-09T02:00:42.374Z,99519.78
2024-05-09T02:03:16.086Z,99510.16
2024-05-09T02:05:47.059Z,99516.31
2024-05-09T02:08:22.373Z,99513.66
2024-05-09T02:10:50.762Z,99511.09
2024-05-09T02:13:18.770Z,99511.16
2024-05-09T02:15:46.109Z,99516.53
2024-05-09T02:18:14.256Z,99513.00
2024-05-09T02:20:42.793Z,99516.59
2024-05-09T02:23:11.393Z,99522.88
2024-05-09T02:25:38.661Z,99522.16
2024-05-09T02:28:06.820Z,99516.19
2024-05-09T02:30:39.922Z,99521.59
2024-05-09T02:33:12.301Z,99512.97
2024-05-09T02:35:43.007Z,99510.44
2024-05-09T02:38:12.316Z,99512.41
2024-05-09T02:40:40.424Z,99514.28
2024-05-09T02:43:10.831Z,99514.38
2024-05-09T02:45:42.067Z,99512.84
2024-05-09T02:48:13.721Z,99516.47
2024-05-09T02:50:41.884Z,99518.22
2024-05-09T02:53:13.155Z,99516.69
2024-05-09T02:55:42.026Z,99508.69
2024-05-09T02:58:10.823Z,99517.41
2024-05-09T03:00:41.593Z,99519.28
2024-05-09T03:03:15.136Z,99521.09
2024-05-09T03:05:44.763Z,99519.50
2024-05-09T03:08:13.188Z,99524.06
2024-05-09T03:10:40.463Z,99526.81
2024-05-09T03:13:08.781Z,99522.50
2024-05-09T03:15:36.876Z,99528.81
2024-05-09T03:18:06.969Z,99524.53
2024-05-09T03:20:36.101Z,99524.63
2024-05-09T03:23:06.331Z,99526.53
2024-05-09T03:25:34.051Z,99525.72
2024-05-09T03:28:01.739Z,99529.28
2024-05-09T03:30:39.033Z,99531.09
2024-05-09T03:33:22.761Z,99524.91
2024-05-09T03:35:50.122Z,99526.88
2024-05-09T03:38:17.919Z,99523.38
2024-05-09T03:40:48.050Z,99525.28
2024-05-09T03:43:16.373Z,99519.19
2024-05-09T03:45:44.676Z,99521.00
2024-05-09T03:48:12.716Z,99530.84
2024-05-09T03:50:40.197Z,99525.66
2024-05-09T03:53:11.518Z,99529.19
2024-05-09T03:55:39.153Z,99528.34
2024-05-09T03:58:12.936Z,99532.03
2024-05-09T04:00:40.556Z,99533.84
2024-05-09T04:03:11.141Z,99534.69
2024-05-09T04:05:42.458Z,99539.00
2024-05-09T04:08:11.380Z,99539.88
2024-05-09T04:10:39.293Z,99533.63
2024-05-09T04:13:06.927Z,99532.72
2024-05-09T04:15:34.090Z,99542.47
2024-05-09T04:18:02.476Z,99545.16
2024-05-09T04:20:37.801Z,99550.41
2024-05-09T04:23:12.249Z,99546.81
2024-05-09T04:25:45.621Z,99549.50
2024-05-09T04:28:14.457Z,99546.00
2024-05-09T04:30:42.888Z,99551.25
2024-05-09T04:33:13.158Z,99560.97
2024-05-09T04:35:45.049Z,99559.19
2024-05-09T04:38:14.649Z,99565.38
2024-05-09T04:40:42.663Z,99566.25
2024-05-09T04:43:19.665Z,99560.78
2024-05-09T04:45:47.207Z,99570.41
2024-05-09T04:48:15.080Z,99570.19
2024-05-09T04:50:42.673Z,99571.84
2024-05-09T04:53:16.628Z,99584.00
2024-05-09T04:55:44.006Z,99574.72
2024-05-09T04:58:11.970Z,99571.75
2024-05-09T05:00:41.028Z,99572.44
2024-05-09T05:03:14.310Z,99569.63
2024-05-09T05:05:45.185Z,99569.41
2024-05-09T05:08:18.608Z,99569.31
2024-05-09T05:10:48.567Z,99576.13
2024-05-09T05:13:20.040Z,99574.06
2024-05-09T05:15:51.002Z,99571.34
2024-05-09T05:18:19.097Z,99571.88
2024-05-09T05:20:46.538Z,99577.69
2024-05-09T05:23:20.913Z,99576.47
2024-05-09T05:25:53.707Z,99574.72
2024-05-09T05:28:22.186Z,99574.06
2024-05-09T05:30:50.064Z,99575.44
2024-05-09T05:33:19.249Z,99574.06
2024-05-09T05:35:47.136Z,99583.88
2024-05-09T05:38:15.195Z,99572.56
2024-05-09T05:40:42.574Z,99569.66
2024-05-09T05:43:18.089Z,99569.19
2024-05-09T05:45:46.458Z,99569.66
2024-05-09T05:48:18.122Z,99561.38
2024-05-09T05:50:46.023Z,99562.25
2024-05-09T05:53:13.841Z,99560.13
2024-05-09T05:55:42.804Z,99563.44
2024-05-09T05:58:15.019Z,99557.91
2024-05-09T06:00:43.062Z,99556.97
2024-05-09T06:03:13.710Z,99563.22
2024-05-09T06:05:46.130Z,99565.94
2024-05-09T06:08:14.029Z,99565.00
2024-05-09T06:10:42.056Z,99565.81
2024-05-09T06:13:14.003Z,99567.44
2024-05-09T06:15:41.928Z,99575.22
2024-05-09T06:18:11.257Z,99575.06
2024-05-09T06:20:42.314Z,99579.28
2024-05-09T06:23:11.326Z,99586.31
2024-05-09T06:25:38.962Z,99585.44
2024-05-09T06:28:06.996Z,99588.84
2024-05-09T06:30:40.313Z,99588.69
2024-05-09T06:33:13.242Z,99581.44
2024-05-09T06:35:43.050Z,99589.06
2024-05-09T06:38:11.060Z,99583.47
2024-05-09T06:40:42.601Z,99579.66
2024-05-09T06:43:13.288Z,99577.78
2024-05-09T06:45:40.951Z,99582.84
2024-05-09T06:48:09.835Z,99583.69
2024-05-09T06:50:39.236Z,99581.75
2024-05-09T06:53:08.700Z,99581.47
2024-05-09T06:55:37.336Z,99578.53
2024-05-09T06:58:12.035Z,99579.88
2024-05-09T07:00:41.448Z,99582.41
2024-05-09T07:03:17.159Z,99578.84
2024-05-09T07:05:47.378Z,99583.19
2024-05-09T07:08:16.807Z,99580.44
2024-05-09T07:10:44.606Z,99576.69
2024-05-09T07:13:14.799Z,99580.06
2024-05-09T07:15:42.777Z,99581.41
2024-05-09T07:18:17.424Z,99580.00
2024-05-09T07:20:46.447Z,99587.00
2024-05-09T07:23:14.286Z,99589.38
2024-05-09T07:25:42.171Z,99592.69
2024-05-09T07:28:16.133Z,99594.25
2024-05-09T07:30:43.740Z,99596.69
2024-05-09T07:33:23.300Z,99591.91
2024-05-09T07:35:52.359Z,99587.06
2024-05-09T07:38:20.227Z,99585.91
2024-05-09T07:40:47.580Z,99588.06
2024-05-09T07:43:16.189Z,99583.06
2024-05-09T07:45:52.084Z,99587.19
2024-05-09T07:52:38.486Z,99586.16
2024-05-09T07:53:47.344Z,99578.53
2024-05-09T07:56:19.410Z,99583.41
2024-05-09T07:58:50.916Z,99575.28
2024-05-09T08:01:18.734Z,99580.00
2024-05-09T08:03:46.640Z,99574.91
2024-05-09T08:06:14.164Z,99578.88
2024-05-09T08:08:41.749Z,99581.00
2024-05-09T08:11:08.905Z,99577.34
2024-05-09T08:13:36.370Z,99580.72
2024-05-09T08:16:03.767Z,99580.53
2024-05-09T08:18:31.581Z,99571.53
2024-05-09T08:20:59.317Z,99575.41
2024-05-09T08:23:26.801Z,99565.50
2024-05-09T08:25:54.037Z,99568.78
2024-05-09T08:28:21.652Z,99571.09
2024-05-09T08:30:49.062Z,99568.06
2024-05-09T08:33:16.905Z,99574.09
2024-05-09T08:35:44.102Z,99570.41
2024-05-09T08:38:11.698Z,99572.03
2024-05-09T08:40:39.279Z,99577.94
2024-05-09T08:43:10.831Z,99574.09
2024-05-09T08:45:43.778Z,99577.59
2024-05-09T08:48:15.651Z,99572.03
2024-05-09T08:50:45.672Z,99572.63
2024-05-09T08:53:15.392Z,99577.88
2024-05-09T08:55:44.747Z,99572.47
2024-05-09T08:58:20.387Z,99574.19
2024-05-09T09:00:49.177Z,99575.28
2024-05-09T09:03:26.896Z,99579.38
2024-05-09T09:06:05.796Z,99571.72
2024-05-09T09:08:33.358Z,99567.59
2024-05-09T09:11:01.136Z,99566.66
2024-05-09T09:13:28.797Z,99572.84
2024-05-09T09:15:59.018Z,99567.56
2024-05-09T09:18:29.348Z,99569.06
2024-05-09T09:20:56.675Z,99572.91
2024-05-09T09:23:24.277Z,99562.34
2024-05-09T09:25:52.088Z,99560.63
2024-05-09T09:28:23.231Z,99565.19
2024-05-09T09:30:50.449Z,99563.69
2024-05-09T09:33:18.514Z,99559.28
2024-05-09T09:35:45.848Z,99563.09
2024-05-09T09:38:23.114Z,99562.44
2024-05-09T09:40:51.232Z,99557.53
2024-05-09T09:43:22.933Z,99563.03
2024-05-09T09:45:53.446Z,99560.25
2024-05-09T09:48:23.113Z,99556.88
2024-05-09T09:50:56.774Z,99564.72
2024-05-09T09:53:24.523Z,99571.53
2024-05-09T09:55:53.115Z,99566.56
2024-05-09T09:58:20.908Z,99560.47
2024-05-09T10:00:55.643Z,99564.56
2024-05-09T10:03:39.130Z,99557.38
2024-05-09T10:06:09.010Z,99559.84
2024-05-09T10:08:39.408Z,99560.13
2024-05-09T10:11:08.253Z,99556.41
2024-05-09T10:13:36.253Z,99554.88
2024-05-09T10:16:21.170Z,99558.91
2024-05-09T10:18:49.439Z,99557.59
2024-05-09T10:21:33.046Z,99547.38
2024-05-09T10:24:04.020Z,99558.53
2024-05-09T10:26:39.564Z,99550.00
2024-05-09T10:29:18.839Z,99551.97
2024-05-09T10:31:48.183Z,99550.63
2024-05-09T10:34:24.092Z,99547.22
2024-05-09T10:36:55.006Z,99535.69
2024-05-09T10:39:23.116Z,99539.66
2024-05-09T10:41:50.375Z,99545.91
2024-05-09T10:44:18.660Z,99541.59
2024-05-09T10:46:46.403Z,99532.16
2024-05-09T10:49:17.415Z,99533.81
2024-05-09T10:51:48.483Z,99529.94
2024-05-09T10:54:16.632Z,99521.25
2024-05-09T10:56:55.742Z,99525.22
2024-05-09T10:59:23.206Z,99523.19
2024-05-09T11:01:51.131Z,99515.47
2024-05-09T11:04:19.805Z,99513.44
2024-05-09T11:06:47.747Z,99514.09
2024-05-09T11:09:18.061Z,99506.94
2024-05-09T11:11:45.583Z,99506.72
2024-05-09T11:14:13.862Z,99509.81
2024-05-09T11:16:41.411Z,99508.66
2024-05-09T11:19:14.463Z,99511.09
2024-05-09T11:21:41.782Z,99510.88
2024-05-09T11:24:11.456Z,99515.06
2024-05-09T11:26:39.078Z,99501.22
2024-05-09T11:29:06.620Z,99502.56
2024-05-09T11:31:44.630Z,99509.19
2024-05-09T11:34:12.170Z,99502.63
2024-05-09T11:36:39.591Z,99492.91
2024-05-09T11:39:07.291Z,99495.69
2024-05-09T11:41:36.001Z,99487.41
2024-05-09T11:44:03.440Z,99484.19
2024-05-09T11:46:30.687Z,99488.72
2024-05-09T11:48:58.291Z,99490.19
2024-05-09T11:51:25.394Z,99486.41
2024-05-09T11:53:52.866Z,99487.94
2024-05-09T11:56:20.031Z,99488.72
2024-05-09T11:58:47.550Z,99484.31
2024-05-09T12:01:14.731Z,99486.78
2024-05-09T12:03:42.339Z,99473.88
2024-05-09T12:06:09.688Z,99481.88
2024-05-09T12:08:37.454Z,99478.69
2024-05-09T12:11:05.258Z,99468.16
2024-05-09T12:13:33.040Z,99470.59
2024-05-09T12:16:00.298Z,99475.25
2024-05-09T12:18:27.884Z,99477.09
2024-05-09T12:20:55.015Z,99477.91
2024-05-09T12:23:22.095Z,99465.00
2024-05-09T12:25:49.977Z,99461.88
2024-05-09T12:28:17.284Z,99459.69
2024-05-09T12:30:44.986Z,99450.81
2024-05-09T12:33:13.520Z,99451.44
2024-05-09T12:35:44.463Z,99453.81
2024-05-09T12:38:15.450Z,99457.59
2024-05-09T12:40:43.607Z,99448.63
2024-05-09T12:43:11.681Z,99450.25
2024-05-09T12:45:40.566Z,99447.72
2024-05-09T12:48:12.429Z,99453.81
2024-05-09T12:50:41.429Z,99449.53
2024-05-09T12:53:08.868Z,99448.69
2024-05-09T12:55:44.254Z,99443.31
2024-05-09T12:58:24.170Z,99447.47
2024-05-09T13:00:52.730Z,99442.97
2024-05-09T13:03:20.463Z,99433.72
2024-05-09T13:05:50.108Z,99428.25
2024-05-09T13:08:17.458Z,99427.03
2024-05-09T13:10:45.222Z,99418.34
2024-05-09T13:13:12.946Z,99406.78
2024-05-09T13:15:40.834Z,99415.00
2024-05-09T13:18:09.902Z,99417.47
2024-05-09T13:20:37.668Z,99406.00
2024-05-09T13:23:07.931Z,99399.28
2024-05-09T13:25:38.044Z,99398.94
2024-05-09T13:28:07.530Z,99391.22
2024-05-09T13:30:40.407Z,99383.78
2024-05-09T13:33:14.262Z,99388.25
2024-05-09T13:35:47.182Z,99383.88
2024-05-09T13:38:20.023Z,99380.97
2024-05-09T13:40:49.032Z,99381.09
2024-05-09T13:43:17.613Z,99381.31
2024-05-09T13:45:45.851Z,99379.59
2024-05-09T13:48:13.383Z,99374.31
2024-05-09T13:50:41.370Z,99373.56
2024-05-09T13:53:09.108Z,99369.13
2024-05-09T13:55:40.292Z,99372.03
2024-05-09T13:58:09.591Z,99362.91
2024-05-09T14:00:45.931Z,99366.94
2024-05-09T14:03:18.743Z,99362.56
2024-05-09T14:05:48.252Z,99360.56
2024-05-09T14:08:17.922Z,99358.84
2024-05-09T14:10:47.264Z,99358.84
2024-05-09T14:13:15.191Z,99360.19
2024-05-09T14:15:42.925Z,99353.63
2024-05-09T14:18:13.200Z,99348.78
2024-05-09T14:20:42.922Z,99354.25
2024-05-09T14:23:10.955Z,99346.38
2024-05-09T14:25:42.653Z,99341.88
2024-05-09T14:28:12.528Z,99346.59
2024-05-09T14:30:41.636Z,99337.31
2024-05-09T14:33:09.585Z,99333.84
2024-05-09T14:35:38.841Z,99333.97
2024-05-09T14:38:08.542Z,99330.53
2024-05-09T14:40:42.243Z,99331.66
2024-05-09T14:43:15.885Z,99327.09
2024-05-09T14:45:45.220Z,99320.66
2024-05-09T14:48:15.688Z,99316.50
2024-05-09T14:50:43.763Z,99308.75
2024-05-09T14:53:13.624Z,99301.91
2024-05-09T14:55:43.327Z,99305.94
2024-05-09T14:58:12.667Z,99311.81
2024-05-09T15:00:46.712Z,99306.19
2024-05-09T15:03:21.095Z,99299.88
2024-05-09T15:05:51.079Z,99295.34
2024-05-09T15:08:19.899Z,99298.25
2024-05-09T15:10:50.072Z,99296.69
2024-05-09T15:13:18.722Z,99295.84
2024-05-09T15:15:46.830Z,99294.00
2024-05-09T15:18:15.337Z,99297.53
2024-05-09T15:20:44.090Z,99293.88
2024-05-09T15:23:11.420Z,99292.66
2024-05-09T15:25:38.925Z,99289.84
2024-05-09T15:28:08.125Z,99289.00
2024-05-09T15:30:36.593Z,99284.34
2024-05-09T15:33:04.736Z,99288.88
2024-05-09T15:35:33.939Z,99285.44
2024-05-09T15:38:05.222Z,99283.59
2024-05-09T15:40:39.539Z,99273.09
2024-05-09T15:43:10.529Z,99276.78
2024-05-09T15:45:40.758Z,99274.88
2024-05-09T15:48:09.993Z,99276.13
2024-05-09T15:50:41.010Z,99279.19
2024-05-09T15:53:12.040Z,99268.59
2024-05-09T15:55:41.531Z,99270.44
2024-05-09T15:58:09.754Z,99274.63
2024-05-09T16:00:41.439Z,99267.84
2024-05-09T16:03:12.414Z,99277.84
2024-05-09T16:05:43.288Z,99274.38
2024-05-09T16:08:12.752Z,99271.28
2024-05-09T16:10:44.589Z,99264.91
2024-05-09T16:13:13.153Z,99270.59
2024-05-09T16:15:41.281Z,99266.03
2024-05-09T16:18:08.720Z,99263.25
2024-05-09T16:20:40.290Z,99261.34
2024-05-09T16:23:10.113Z,99254.75
2024-05-09T16:25:39.075Z,99260.59
2024-05-09T16:28:09.898Z,99261.34
2024-05-09T16:30:40.085Z,99261.28
2024-05-09T16:33:08.440Z,99263.00
2024-05-09T16:35:37.492Z,99254.59
2024-05-09T16:38:06.520Z,99260.94
2024-05-09T16:40:38.838Z,99254.47
2024-05-09T16:43:10.357Z,99251.00
2024-05-09T16:45:45.002Z,99258.09
2024-05-09T16:48:14.130Z,99248.78
2024-05-09T16:50:42.017Z,99246.63
2024-05-09T16:53:09.261Z,99252.88
2024-05-09T16:55:36.996Z,99253.06
2024-05-09T16:58:06.630Z,99252.69
2024-05-09T17:00:40.983Z,99252.22
2024-05-09T17:03:14.133Z,99252.53
2024-05-09T17:05:44.064Z,99247.03
2024-05-09T17:08:11.688Z,99248.53
2024-05-09T17:10:39.263Z,99233.66
2024-05-09T17:13:07.899Z,99242.72
2024-05-09T17:15:37.608Z,99233.94
2024-05-09T17:18:07.706Z,99245.53
2024-05-09T17:20:37.491Z,99244.09
2024-05-09T17:23:14.848Z,99238.97
2024-05-09T17:25:43.215Z,99235.41
2024-05-09T17:28:12.190Z,99236.22
2024-05-09T17:30:42.205Z,99231.22
2024-05-09T17:33:11.633Z,99236.94
2024-05-09T17:35:40.544Z,99234.00
2024-05-09T17:38:08.681Z,99237.28
2024-05-09T17:40:38.096Z,99233.38
2024-05-09T17:43:09.429Z,99235.66
2024-05-09T17:45:40.511Z,99234.28
2024-05-09T17:48:12.526Z,99244.38
2024-05-09T17:50:41.605Z,99246.56
2024-05-09T17:53:10.466Z,99241.50
2024-05-09T17:55:39.237Z,99238.47
2024-05-09T17:58:06.801Z,99239.88
2024-05-09T18:00:39.432Z,99240.97
2024-05-09T18:03:13.793Z,99235.00
2024-05-09T18:05:44.521Z,99241.66
2024-05-09T18:08:12.978Z,99241.34
2024-05-09T18:10:41.889Z,99242.56
2024-05-09T18:13:10.939Z,99243.88
2024-05-09T18:15:42.571Z,99238.00
2024-05-09T18:18:10.823Z,99253.41
2024-05-09T18:20:43.885Z,99251.00
2024-05-09T18:23:16.256Z,99249.50
2024-05-09T18:25:46.544Z,99246.19
2024-05-09T18:28:14.844Z,99256.25
2024-05-09T18:30:43.247Z,99244.94
2024-05-09T18:33:11.552Z,99252.44
2024-05-09T18:35:43.971Z,99252.66
2024-05-09T18:38:11.295Z,99259.94
2024-05-09T18:40:40.233Z,99252.97
2024-05-09T18:43:09.370Z,99258.66
2024-05-09T18:45:38.200Z,99261.53
2024-05-09T18:48:08.726Z,99269.66
2024-05-09T18:50:39.634Z,99274.38
2024-05-09T18:53:11.588Z,99266.69
2024-05-09T18:55:40.315Z,99272.97
2024-05-09T18:58:07.979Z,99287.53
2024-05-09T19:00:38.690Z,99279.63
2024-05-09T19:03:12.378Z,99278.16
2024-05-09T19:05:45.901Z,99280.41
2024-05-09T19:08:15.433Z,99277.94
2024-05-09T19:10:43.006Z,99286.91
2024-05-09T19:13:13.255Z,99288.09
2024-05-09T19:15:43.103Z,99292.78
2024-05-09T19:18:14.248Z,99291.38
2024-05-09T19:20:42.454Z,99296.09
2024-05-09T19:23:11.644Z,99301.09
2024-05-09T19:25:39.135Z,99296.94
2024-05-09T19:28:07.063Z,99298.88
2024-05-09T19:30:39.803Z,99307.09
2024-05-09T19:33:13.798Z,99302.03
2024-05-09T19:35:42.997Z,99303.31
2024-05-09T19:38:12.176Z,99306.19
2024-05-09T19:40:39.371Z,99302.13
2024-05-09T19:43:07.190Z,99315.66
2024-05-09T19:45:35.626Z,99311.47
2024-05-09T19:48:05.794Z,99317.78
2024-05-09T19:50:41.275Z,99317.22
2024-05-09T19:53:12.958Z,99321.06
2024-05-09T19:55:43.531Z,99324.78
2024-05-09T19:58:12.308Z,99325.94
2024-05-09T20:00:42.270Z,99317.28
2024-05-09T20:03:13.291Z,99321.03
2024-05-09T20:05:44.666Z,99317.69
2024-05-09T20:08:12.868Z,99326.94
2024-05-09T20:10:40.068Z,99324.47
2024-05-09T20:13:08.398Z,99336.22
2024-05-09T20:15:37.820Z,99324.88
2024-05-09T20:18:06.771Z,99335.00
2024-05-09T20:20:39.601Z,99328.13
2024-05-09T20:23:14.259Z,99327.56
2024-05-09T20:25:42.433Z,99330.44
2024-05-09T20:28:10.880Z,99333.41
2024-05-09T20:30:38.530Z,99329.22
2024-05-09T20:33:07.788Z,99336.47
2024-05-09T20:35:36.496Z,99330.47
2024-05-09T20:38:04.823Z,99335.91
2024-05-09T20:40:36.753Z,99338.94
2024-05-09T20:43:10.798Z,99327.78
2024-05-09T20:45:38.789Z,99333.31
2024-05-09T20:48:08.203Z,99330.94
2024-05-09T20:50:39.755Z,99331.97
2024-05-09T20:53:12.907Z,99331.41
2024-05-09T20:55:41.212Z,99333.41
2024-05-09T20:58:10.291Z,99331.78
2024-05-09T21:00:41.330Z,99335.59
2024-05-09T21:03:13.790Z,99334.06
2024-05-09T21:05:42.259Z,99335.19
2024-05-09T21:08:10.301Z,99335.41
2024-05-09T21:10:38.055Z,99338.16
2024-05-09T21:13:06.823Z,99334.91
2024-05-09T21:15:35.322Z,99340.34
2024-05-09T21:18:04.132Z,99340.44
2024-05-09T21:20:33.433Z,99328.22
2024-05-09T21:23:02.259Z,99337.19
2024-05-09T21:25:30.109Z,99339.19
2024-05-09T21:27:58.128Z,99335.63
2024-05-09T21:32:55.899Z,99340.28
2024-05-09T21:35:23.019Z,99336.03
2024-05-09T21:37:50.513Z,99343.22
2024-05-09T21:40:27.008Z,99335.34
2024-05-09T21:43:01.370Z,99337.22
2024-05-09T21:45:28.693Z,99329.44
2024-05-09T21:47:56.384Z,99327.72
2024-05-09T21:50:31.781Z,99333.13
2024-05-09T21:53:07.103Z,99333.22
2024-05-09T21:55:34.567Z,99331.63
2024-05-09T21:58:02.767Z,99336.25
2024-05-09T22:00:36.130Z,99329.97
2024-05-09T22:03:10.606Z,99326.63
2024-05-09T22:05:42.152Z,99332.91
2024-05-09T22:08:10.996Z,99331.28
2024-05-09T22:10:38.301Z,99334.91
2024-05-09T22:13:06.992Z,99324.41
2024-05-09T22:15:40.105Z,99328.13
2024-05-09T22:18:10.346Z,99332.78
2024-05-09T22:20:45.337Z,99330.47
2024-05-09T22:23:14.902Z,99329.09
2024-05-09T22:25:42.501Z,99329.25
2024-05-09T22:28:10.337Z,99330.28
2024-05-09T22:30:39.699Z,99334.06
2024-05-09T22:33:10.141Z,99333.50
2024-05-09T22:35:39.346Z,99332.03
2024-05-09T22:38:07.009Z,99328.59
2024-05-09T22:40:44.912Z,99332.31
2024-05-09T22:43:24.278Z,99330.78
2024-05-09T22:45:55.932Z,99325.69
2024-05-09T22:48:25.186Z,99333.84
2024-05-09T22:50:54.468Z,99340.19
2024-05-09T22:53:25.627Z,99338.66
2024-05-09T22:55:53.460Z,99334.47
2024-05-09T22:58:21.562Z,99335.66
2024-05-09T23:00:48.995Z,99338.38
2024-05-09T23:03:16.858Z,99330.69
2024-05-09T23:05:44.482Z,99331.78
2024-05-09T23:08:11.969Z,99332.81
2024-05-09T23:10:39.268Z,99332.22
2024-05-09T23:13:07.997Z,99330.66
2024-05-09T23:15:38.440Z,99323.88
2024-05-09T23:18:07.461Z,99323.69
2024-05-09T23:20:38.566Z,99332.84
2024-05-09T23:23:09.805Z,99325.94
2024-05-09T23:25:38.124Z,99322.66
2024-05-09T23:28:06.312Z,99330.03
2024-05-09T23:30:38.348Z,99320.50
2024-05-09T23:33:11.953Z,99323.41
2024-05-09T23:35:41.925Z,99318.16
2024-05-09T23:38:09.835Z,99317.41
2024-05-09T23:40:40.011Z,99314.13
2024-05-09T23:43:11.843Z,99309.94
2024-05-09T23:45:39.966Z,99313.66
2024-05-09T23:48:08.663Z,99314.78
2024-05-09T23:50:38.262Z,99311.50
2024-05-09T23:53:08.966Z,99312.66
2024-05-09T23:55:37.666Z,99312.13
2024-05-09T23:58:06.833Z,99313.78
